createdAt,value
2017-05-29T00:01:59.181Z,11.06
2017-05-29T00:04:26.398Z,8.32
2017-05-29T00:06:53.579Z,8.66
2017-05-29T00:09:20.934Z,8.18
2017-05-29T00:11:48.195Z,8.20
2017-05-29T00:14:15.356Z,8.24
2017-05-29T00:16:42.664Z,7.80
2017-05-29T00:19:09.954Z,8.58
2017-05-29T00:21:37.167Z,7.56
2017-05-29T00:24:04.571Z,8.38
2017-05-29T00:26:31.800Z,8.24
2017-05-29T00:28:59.126Z,8.26
2017-05-29T00:31:27.248Z,8.26
2017-05-29T00:33:54.450Z,7.50
2017-05-29T00:36:21.828Z,7.90
2017-05-29T00:38:49.005Z,7.92
2017-05-29T00:41:16.211Z,7.68
2017-05-29T00:43:43.475Z,8.32
2017-05-29T00:46:10.668Z,7.80
2017-05-29T00:48:37.836Z,8.56
2017-05-29T00:51:05.084Z,8.68
2017-05-29T00:53:32.417Z,8.60
2017-05-29T00:55:59.654Z,8.06
2017-05-29T00:58:26.959Z,8.50
2017-05-29T01:00:54.136Z,8.16
2017-05-29T01:03:21.372Z,7.50
2017-05-29T01:05:48.623Z,7.48
2017-05-29T01:08:15.868Z,8.94
2017-05-29T01:10:43.093Z,8.90
2017-05-29T01:13:10.296Z,8.10
2017-05-29T01:15:37.584Z,8.80
2017-05-29T01:18:04.811Z,9.02
2017-05-29T01:20:32.099Z,8.36
2017-05-29T01:22:59.332Z,8.38
2017-05-29T01:25:26.531Z,7.78
2017-05-29T01:27:53.753Z,8.48
2017-05-29T01:30:20.931Z,8.10
2017-05-29T01:32:48.111Z,8.54
2017-05-29T01:35:15.319Z,8.16
2017-05-29T01:37:42.484Z,8.14
2017-05-29T01:40:09.651Z,7.82
2017-05-29T01:42:36.888Z,7.32
2017-05-29T01:45:04.103Z,6.96
2017-05-29T01:47:31.301Z,7.92
2017-05-29T01:49:58.479Z,8.62
2017-05-29T01:52:25.701Z,7.78
2017-05-29T01:54:52.909Z,7.66
2017-05-29T01:57:20.102Z,7.40
2017-05-29T01:59:47.291Z,7.70
2017-05-29T02:02:14.476Z,7.90
2017-05-29T02:04:41.675Z,7.84
2017-05-29T02:07:08.903Z,8.26
2017-05-29T02:09:36.051Z,8.16
2017-05-29T02:12:03.408Z,8.52
2017-05-29T02:14:30.607Z,8.90
2017-05-29T02:16:57.763Z,8.14
2017-05-29T02:19:25.004Z,8.00
2017-05-29T02:21:52.232Z,8.36
2017-05-29T02:24:19.417Z,8.40
2017-05-29T02:26:46.633Z,8.68
2017-05-29T02:29:13.791Z,8.46
2017-05-29T02:31:40.984Z,8.30
2017-05-29T02:34:08.189Z,8.20
2017-05-29T02:36:35.423Z,7.90
2017-05-29T02:39:02.639Z,8.16
2017-05-29T02:41:30.091Z,8.96
2017-05-29T02:43:57.268Z,8.50
2017-05-29T02:46:24.471Z,9.28
2017-05-29T02:48:51.652Z,8.84
2017-05-29T02:51:18.857Z,8.82
2017-05-29T02:53:46.040Z,8.06
2017-05-29T02:56:13.232Z,9.14
2017-05-29T02:58:40.488Z,8.72
2017-05-29T03:01:07.667Z,8.24
2017-05-29T03:03:34.838Z,9.70
2017-05-29T03:06:02.021Z,9.52
2017-05-29T03:08:29.187Z,8.84
2017-05-29T03:10:56.416Z,9.28
2017-05-29T03:13:23.663Z,9.00
2017-05-29T03:15:50.906Z,8.44
2017-05-29T03:18:18.142Z,8.22
2017-05-29T03:20:45.300Z,8.42
2017-05-29T03:23:12.622Z,8.58
2017-05-29T03:25:39.982Z,8.38
2017-05-29T03:28:07.204Z,7.78
2017-05-29T03:30:34.399Z,8.62
2017-05-29T03:33:01.628Z,8.40
2017-05-29T03:35:28.826Z,8.26
2017-05-29T03:37:56.146Z,8.04
2017-05-29T03:40:23.347Z,9.00
2017-05-29T03:42:50.547Z,8.44
2017-05-29T03:45:17.779Z,8.68
2017-05-29T03:47:44.983Z,8.18
2017-05-29T03:50:12.170Z,8.00
2017-05-29T03:52:39.501Z,8.92
2017-05-29T03:55:06.708Z,8.88
2017-05-29T03:57:33.875Z,8.66
2017-05-29T04:00:01.222Z,7.60
2017-05-29T04:02:28.428Z,7.94
2017-05-29T04:04:55.631Z,8.72
2017-05-29T04:07:22.810Z,8.54
2017-05-29T04:09:50.031Z,8.38
2017-05-29T04:12:17.260Z,8.78
2017-05-29T04:14:44.456Z,8.78
2017-05-29T04:17:11.651Z,8.36
2017-05-29T04:19:38.891Z,8.62
2017-05-29T04:22:06.184Z,7.76
2017-05-29T04:24:33.404Z,8.40
2017-05-29T04:27:00.589Z,8.46
2017-05-29T04:29:27.779Z,8.90
2017-05-29T04:31:55.004Z,9.26
2017-05-29T04:34:22.212Z,10.46
2017-05-29T04:36:49.397Z,9.36
2017-05-29T04:39:16.588Z,9.48
2017-05-29T04:41:43.931Z,9.00
2017-05-29T04:44:11.118Z,8.78
2017-05-29T04:46:38.362Z,9.18
2017-05-29T04:49:05.600Z,9.00
2017-05-29T04:51:32.773Z,8.16
2017-05-29T04:54:00.002Z,8.72
2017-05-29T04:56:27.260Z,9.72
2017-05-29T04:58:54.623Z,9.02
2017-05-29T05:01:21.824Z,9.20
2017-05-29T05:03:49.064Z,8.70
2017-05-29T05:06:16.372Z,8.64
2017-05-29T05:08:43.596Z,8.14
2017-05-29T05:11:10.799Z,9.40
2017-05-29T05:13:38.002Z,10.24
2017-05-29T05:16:05.206Z,9.48
2017-05-29T05:18:32.496Z,11.26
2017-05-29T05:20:59.709Z,10.10
2017-05-29T05:23:27.452Z,9.30
2017-05-29T05:25:54.696Z,9.76
2017-05-29T05:28:21.902Z,9.60
2017-05-29T05:30:50.024Z,9.74
2017-05-29T05:33:17.195Z,9.64
2017-05-29T05:35:44.412Z,10.66
2017-05-29T05:38:11.615Z,9.72
2017-05-29T05:40:38.829Z,9.76
2017-05-29T05:43:06.169Z,9.14
2017-05-29T05:45:33.348Z,10.46
2017-05-29T05:48:00.537Z,10.54
2017-05-29T05:50:27.796Z,11.10
2017-05-29T05:52:54.956Z,10.50
2017-05-29T05:55:22.164Z,9.66
2017-05-29T05:57:49.411Z,9.30
2017-05-29T06:00:16.662Z,10.24
2017-05-29T06:02:43.915Z,10.10
2017-05-29T06:05:11.124Z,10.08
2017-05-29T06:07:38.326Z,9.42
2017-05-29T06:10:05.673Z,9.50
2017-05-29T06:12:32.932Z,8.62
2017-05-29T06:15:00.180Z,8.64
2017-05-29T06:17:27.452Z,7.78
2017-05-29T06:19:54.664Z,8.44
2017-05-29T06:22:21.936Z,8.10
2017-05-29T06:24:49.143Z,8.14
2017-05-29T06:27:16.470Z,8.40
2017-05-29T06:29:43.686Z,7.90
2017-05-29T06:32:10.981Z,6.98
2017-05-29T06:34:38.187Z,8.06
2017-05-29T06:37:05.363Z,7.20
2017-05-29T06:39:32.617Z,7.70
2017-05-29T06:41:59.848Z,6.42
2017-05-29T06:44:27.025Z,7.26
2017-05-29T06:46:54.270Z,7.70
2017-05-29T06:49:36.387Z,7.74
2017-05-29T06:52:02.898Z,6.58
2017-05-29T06:54:29.428Z,6.98
2017-05-29T06:56:56.769Z,6.26
2017-05-29T06:59:23.294Z,6.32
2017-05-29T07:01:50.651Z,7.10
2017-05-29T07:04:17.237Z,7.20
2017-05-29T07:06:44.462Z,7.10
2017-05-29T07:09:11.752Z,7.04
2017-05-29T07:11:38.215Z,7.52
2017-05-29T07:14:04.680Z,6.50
2017-05-29T07:16:31.091Z,6.24
2017-05-29T07:18:57.523Z,5.48
2017-05-29T07:21:24.773Z,5.66
2017-05-29T07:23:51.278Z,5.28
2017-05-29T07:26:18.576Z,5.70
2017-05-29T07:28:45.079Z,5.28
2017-05-29T07:31:11.552Z,5.70
2017-05-29T07:33:38.864Z,5.86
2017-05-29T07:36:05.325Z,5.56
2017-05-29T07:38:32.540Z,5.60
2017-05-29T07:40:59.120Z,5.88
2017-05-29T07:43:25.545Z,6.22
2017-05-29T07:45:52.815Z,5.94
2017-05-29T07:48:34.267Z,5.96
2017-05-29T07:51:01.513Z,5.40
2017-05-29T07:53:27.984Z,6.36
2017-05-29T07:55:54.514Z,5.34
2017-05-29T07:58:21.020Z,5.38
2017-05-29T08:00:47.500Z,4.24
2017-05-29T08:03:14.795Z,4.62
2017-05-29T08:05:41.207Z,5.10
2017-05-29T08:08:08.568Z,4.92
2017-05-29T08:10:35.109Z,4.70
2017-05-29T08:13:01.629Z,5.04
2017-05-29T08:15:28.112Z,4.50
2017-05-29T08:17:54.714Z,5.20
2017-05-29T08:20:21.976Z,4.86
2017-05-29T08:22:49.163Z,5.18
2017-05-29T08:25:15.655Z,6.40
2017-05-29T08:27:42.840Z,4.88
2017-05-29T08:30:10.346Z,5.56
2017-05-29T08:32:37.660Z,5.78
2017-05-29T08:35:04.112Z,5.28
2017-05-29T08:37:30.605Z,5.84
2017-05-29T08:39:57.871Z,5.16
2017-05-29T08:42:25.140Z,4.74
2017-05-29T08:44:52.424Z,5.30
2017-05-29T08:47:19.647Z,4.68
2017-05-29T08:49:46.896Z,4.54
2017-05-29T08:52:13.425Z,5.16
2017-05-29T08:54:40.639Z,4.90
2017-05-29T08:57:07.971Z,4.58
2017-05-29T08:59:34.534Z,5.28
2017-05-29T09:02:01.748Z,5.02
2017-05-29T09:04:28.253Z,4.92
2017-05-29T09:06:54.768Z,4.50
2017-05-29T09:09:21.251Z,4.58
2017-05-29T09:11:47.724Z,4.00
2017-05-29T09:14:14.285Z,4.46
2017-05-29T09:16:40.807Z,3.92
2017-05-29T09:19:07.997Z,4.70
2017-05-29T09:21:34.488Z,4.08
2017-05-29T09:24:01.680Z,4.10
2017-05-29T09:26:28.184Z,4.14
2017-05-29T09:28:54.682Z,4.28
2017-05-29T09:31:21.204Z,4.62
2017-05-29T09:33:47.687Z,4.68
2017-05-29T09:36:14.157Z,4.38
2017-05-29T09:38:40.723Z,4.72
2017-05-29T09:41:07.917Z,4.78
2017-05-29T09:43:34.390Z,4.74
2017-05-29T09:46:01.694Z,4.88
2017-05-29T09:48:28.292Z,4.84
2017-05-29T09:50:55.521Z,5.26
2017-05-29T09:53:23.012Z,4.58
2017-05-29T09:55:50.326Z,5.56
2017-05-29T09:58:16.825Z,5.18
2017-05-29T10:00:43.291Z,5.36
2017-05-29T10:03:09.835Z,5.40
2017-05-29T10:05:36.440Z,5.52
2017-05-29T10:08:02.999Z,5.42
2017-05-29T10:10:29.439Z,5.56
2017-05-29T10:12:56.728Z,5.48
2017-05-29T10:15:24.023Z,5.10
2017-05-29T10:17:50.783Z,5.32
2017-05-29T10:20:17.988Z,5.52
2017-05-29T10:22:44.825Z,5.12
2017-05-29T10:25:11.304Z,5.50
2017-05-29T10:27:38.563Z,5.36
2017-05-29T10:30:05.749Z,5.86
2017-05-29T10:32:32.999Z,5.04
2017-05-29T10:34:59.530Z,5.60
2017-05-29T10:37:26.812Z,5.16
2017-05-29T10:39:53.286Z,6.30
2017-05-29T10:42:19.814Z,5.30
2017-05-29T10:44:47.294Z,5.22
2017-05-29T10:47:13.828Z,5.80
2017-05-29T10:49:40.410Z,6.50
2017-05-29T10:52:07.041Z,5.54
2017-05-29T10:54:33.579Z,5.40
2017-05-29T10:57:00.802Z,5.80
2017-05-29T10:59:27.271Z,5.38
2017-05-29T11:01:54.633Z,6.06
2017-05-29T11:04:21.905Z,5.78
2017-05-29T11:06:48.442Z,6.16
2017-05-29T11:09:15.705Z,6.82
2017-05-29T11:11:42.933Z,6.02
2017-05-29T11:14:09.400Z,5.72
2017-05-29T11:16:36.742Z,4.98
2017-05-29T11:19:03.996Z,5.72
2017-05-29T11:21:31.220Z,6.26
2017-05-29T11:23:58.473Z,5.60
2017-05-29T11:26:26.474Z,6.28
2017-05-29T11:28:53.700Z,5.90
2017-05-29T11:31:20.196Z,5.54
2017-05-29T11:33:47.399Z,5.82
2017-05-29T11:36:13.887Z,5.96
2017-05-29T11:38:40.544Z,5.80
2017-05-29T11:41:07.766Z,6.34
2017-05-29T11:43:34.945Z,5.82
2017-05-29T11:46:02.361Z,5.64
2017-05-29T11:48:29.637Z,6.00
2017-05-29T11:50:56.904Z,5.70
2017-05-29T11:53:23.404Z,5.96
2017-05-29T11:55:49.863Z,6.38
2017-05-29T11:58:16.396Z,6.40
2017-05-29T12:00:42.877Z,5.94
2017-05-29T12:03:09.396Z,5.56
2017-05-29T12:05:35.927Z,5.62
2017-05-29T12:08:03.145Z,5.04
2017-05-29T12:10:29.588Z,5.30
2017-05-29T12:12:56.903Z,5.20
2017-05-29T12:15:23.415Z,5.02
2017-05-29T12:17:50.643Z,5.64
2017-05-29T12:20:17.916Z,5.10
2017-05-29T12:22:44.526Z,5.68
2017-05-29T12:25:11.801Z,4.78
2017-05-29T12:27:38.295Z,5.32
2017-05-29T12:30:04.822Z,5.18
2017-05-29T12:32:31.332Z,4.92
2017-05-29T12:34:58.726Z,5.58
2017-05-29T12:37:25.915Z,4.84
2017-05-29T12:39:53.221Z,4.80
2017-05-29T12:42:20.539Z,5.38
2017-05-29T12:44:47.763Z,5.20
2017-05-29T12:47:15.081Z,4.74
2017-05-29T12:49:41.542Z,4.70
2017-05-29T12:52:08.842Z,4.88
2017-05-29T12:54:36.365Z,5.20
2017-05-29T12:57:03.001Z,5.38
2017-05-29T12:59:30.268Z,5.64
2017-05-29T13:01:56.728Z,5.86
2017-05-29T13:04:23.983Z,5.14
2017-05-29T13:06:50.617Z,5.80
2017-05-29T13:09:17.828Z,5.12
2017-05-29T13:11:44.389Z,5.08
2017-05-29T13:14:10.931Z,5.76
2017-05-29T13:16:37.499Z,5.92
2017-05-29T13:19:04.713Z,6.22
2017-05-29T13:21:31.936Z,5.88
2017-05-29T13:23:59.173Z,5.78
2017-05-29T13:26:25.678Z,6.90
2017-05-29T13:28:53.000Z,6.24
2017-05-29T13:31:20.327Z,7.28
2017-05-29T13:33:46.970Z,7.00
2017-05-29T13:36:13.576Z,7.22
2017-05-29T13:38:40.813Z,7.16
2017-05-29T13:41:08.025Z,7.16
2017-05-29T13:43:35.331Z,7.22
2017-05-29T13:46:01.984Z,7.40
2017-05-29T13:48:28.519Z,6.82
2017-05-29T13:50:55.804Z,6.34
2017-05-29T13:53:23.039Z,6.70
2017-05-29T13:55:49.534Z,6.52
2017-05-29T13:58:16.764Z,6.90
2017-05-29T14:00:43.245Z,6.36
2017-05-29T14:03:09.718Z,6.28
2017-05-29T14:05:37.035Z,6.50
2017-05-29T14:08:03.570Z,6.22
2017-05-29T14:10:30.819Z,6.08
2017-05-29T14:12:57.303Z,6.08
2017-05-29T14:15:23.772Z,6.20
2017-05-29T14:17:51.036Z,6.30
2017-05-29T14:20:17.552Z,5.78
2017-05-29T14:22:44.825Z,5.86
2017-05-29T14:25:12.159Z,6.36
2017-05-29T14:27:38.652Z,5.46
2017-05-29T14:30:05.834Z,6.26
2017-05-29T14:32:32.319Z,6.56
2017-05-29T14:34:58.924Z,5.64
2017-05-29T14:37:25.474Z,6.36
2017-05-29T14:39:52.072Z,6.20
2017-05-29T14:42:18.533Z,6.70
2017-05-29T14:44:45.829Z,6.60
2017-05-29T14:47:12.766Z,6.32
2017-05-29T14:49:40.008Z,6.40
2017-05-29T14:52:07.556Z,6.18
2017-05-29T14:54:34.806Z,6.62
2017-05-29T14:57:02.144Z,6.20
2017-05-29T14:59:29.384Z,6.42
2017-05-29T15:01:56.594Z,6.54
2017-05-29T15:04:23.975Z,5.54
2017-05-29T15:06:51.173Z,6.60
2017-05-29T15:09:18.432Z,6.52
2017-05-29T15:11:45.001Z,6.60
2017-05-29T15:14:11.471Z,5.72
2017-05-29T15:16:37.948Z,6.26
2017-05-29T15:19:05.201Z,6.30
2017-05-29T15:21:31.660Z,6.02
2017-05-29T15:23:58.945Z,7.82
2017-05-29T15:26:25.437Z,8.28
2017-05-29T15:28:51.940Z,7.38
2017-05-29T15:31:18.413Z,6.42
2017-05-29T15:33:45.617Z,8.54
2017-05-29T15:36:12.905Z,7.58
2017-05-29T15:38:39.433Z,9.22
2017-05-29T15:41:06.073Z,8.02
2017-05-29T15:43:32.613Z,8.30
2017-05-29T15:45:59.833Z,8.14
2017-05-29T15:48:27.035Z,7.72
2017-05-29T15:50:53.512Z,7.04
2017-05-29T15:53:19.976Z,7.24
2017-05-29T15:55:47.273Z,6.48
2017-05-29T15:58:13.724Z,7.18
2017-05-29T16:00:40.362Z,6.90
2017-05-29T16:03:06.841Z,6.68
2017-05-29T16:05:33.344Z,7.20
2017-05-29T16:07:59.844Z,7.26
2017-05-29T16:10:27.115Z,7.38
2017-05-29T16:12:53.647Z,7.32
2017-05-29T16:15:20.273Z,7.20
2017-05-29T16:17:46.730Z,7.20
2017-05-29T16:20:13.245Z,7.60
2017-05-29T16:22:39.866Z,6.66
2017-05-29T16:25:07.049Z,6.84
2017-05-29T16:27:34.288Z,6.90
2017-05-29T16:30:01.544Z,7.98
2017-05-29T16:32:28.749Z,7.52
2017-05-29T16:34:55.316Z,7.22
2017-05-29T16:37:21.811Z,8.38
2017-05-29T16:39:49.028Z,8.20
2017-05-29T16:42:16.380Z,8.28
2017-05-29T16:44:43.566Z,8.78
2017-05-29T16:47:10.084Z,8.58
2017-05-29T16:49:37.346Z,7.90
2017-05-29T16:52:03.831Z,9.90
2017-05-29T16:54:30.395Z,8.64
2017-05-29T16:56:56.883Z,8.50
2017-05-29T16:59:24.964Z,8.48
2017-05-29T17:01:52.149Z,8.64
2017-05-29T17:04:18.677Z,8.60
2017-05-29T17:06:45.188Z,8.28
2017-05-29T17:09:11.806Z,9.28
2017-05-29T17:11:39.169Z,8.72
2017-05-29T17:14:05.663Z,9.48
2017-05-29T17:16:32.205Z,8.90
2017-05-29T17:18:58.676Z,8.12
2017-05-29T17:21:25.313Z,9.08
2017-05-29T17:23:51.911Z,9.68
2017-05-29T17:26:19.131Z,9.80
2017-05-29T17:28:46.452Z,8.42
2017-05-29T17:31:12.938Z,8.78
2017-05-29T17:33:40.258Z,8.28
2017-05-29T17:36:06.763Z,9.66
2017-05-29T17:38:48.097Z,20.48
2017-05-29T17:41:15.404Z,10.36
2017-05-29T17:43:42.048Z,11.54
2017-05-29T17:46:09.344Z,21.38
2017-05-29T17:48:36.816Z,13.54
2017-05-29T17:53:52.757Z,9.14
2017-05-29T17:56:19.984Z,9.46
2017-05-29T17:58:47.329Z,9.32
2017-05-29T18:01:14.038Z,10.28
2017-05-29T18:03:41.268Z,9.98
2017-05-29T18:06:07.764Z,9.18
2017-05-29T18:08:34.415Z,9.58
2017-05-29T18:11:00.920Z,8.64
2017-05-29T18:13:28.227Z,9.52
2017-05-29T18:15:55.465Z,10.22
2017-05-29T18:18:21.991Z,10.88
2017-05-29T18:20:49.463Z,10.14
2017-05-29T18:23:16.865Z,10.64
2017-05-29T18:25:44.173Z,10.66
2017-05-29T18:28:10.675Z,11.22
2017-05-29T18:30:37.144Z,10.62
2017-05-29T18:33:04.407Z,10.12
2017-05-29T18:35:30.924Z,10.46
2017-05-29T18:37:58.151Z,10.42
2017-05-29T18:40:24.683Z,11.80
2017-05-29T18:42:51.215Z,11.56
2017-05-29T18:45:17.647Z,10.28
2017-05-29T18:47:44.996Z,10.42
2017-05-29T18:50:12.296Z,10.14
2017-05-29T18:52:39.594Z,9.92
2017-05-29T18:55:06.902Z,11.18
2017-05-29T18:57:34.248Z,10.14
2017-05-29T19:00:01.573Z,11.34
2017-05-29T19:02:29.041Z,11.28
2017-05-29T19:04:55.504Z,12.46
2017-05-29T19:07:22.800Z,12.06
2017-05-29T19:09:50.302Z,11.58
2017-05-29T19:12:17.654Z,12.26
2017-05-29T19:14:44.225Z,10.74
2017-05-29T19:17:11.455Z,11.68
2017-05-29T19:19:37.953Z,11.90
2017-05-29T19:22:05.211Z,12.04
2017-05-29T19:24:32.537Z,11.34
2017-05-29T19:26:59.820Z,11.76
2017-05-29T19:29:27.126Z,11.00
2017-05-29T19:31:54.663Z,11.58
2017-05-29T19:34:21.180Z,11.68
2017-05-29T19:36:48.426Z,11.48
2017-05-29T19:39:15.054Z,11.48
2017-05-29T19:41:42.348Z,11.52
2017-05-29T19:44:09.595Z,12.94
2017-05-29T19:46:36.195Z,11.54
2017-05-29T19:49:03.534Z,12.58
2017-05-29T19:51:31.008Z,11.78
2017-05-29T19:53:58.539Z,11.70
2017-05-29T19:56:25.162Z,12.20
2017-05-29T19:58:51.641Z,12.26
2017-05-29T20:01:18.102Z,12.54
2017-05-29T20:03:44.825Z,12.30
2017-05-29T20:06:12.164Z,12.04
2017-05-29T20:08:39.475Z,12.02
2017-05-29T20:11:06.737Z,12.40
2017-05-29T20:13:33.286Z,12.60
2017-05-29T20:16:00.605Z,12.92
2017-05-29T20:18:27.213Z,12.70
2017-05-29T20:20:54.518Z,14.06
2017-05-29T20:23:21.030Z,13.32
2017-05-29T20:25:47.520Z,13.32
2017-05-29T20:28:14.796Z,12.92
2017-05-29T20:30:42.170Z,14.98
2017-05-29T20:33:09.394Z,15.00
2017-05-29T20:35:36.681Z,15.70
2017-05-29T20:38:03.901Z,16.46
2017-05-29T20:40:30.522Z,15.78
2017-05-29T20:42:57.038Z,16.50
2017-05-29T20:45:23.527Z,121.02
2017-05-29T20:47:50.185Z,58.60
2017-05-29T20:50:16.925Z,17.58
2017-05-29T20:52:43.393Z,15.30
2017-05-29T20:55:10.756Z,14.78
2017-05-29T20:57:37.983Z,15.10
2017-05-29T21:00:04.579Z,15.26
2017-05-29T21:02:31.096Z,16.90
2017-05-29T21:04:57.725Z,16.90
2017-05-29T21:07:25.002Z,16.18
2017-05-29T21:09:52.242Z,14.16
2017-05-29T21:12:19.577Z,14.66
2017-05-29T21:14:46.890Z,16.88
2017-05-29T21:17:14.360Z,17.28
2017-05-29T21:19:41.697Z,15.16
2017-05-29T21:22:08.975Z,15.00
2017-05-29T21:24:36.209Z,14.60
2017-05-29T21:27:03.437Z,14.44
2017-05-29T21:29:31.331Z,15.08
2017-05-29T21:31:58.524Z,16.26
2017-05-29T21:34:25.841Z,14.98
2017-05-29T21:36:53.084Z,15.78
2017-05-29T21:39:20.338Z,16.42
2017-05-29T21:41:47.592Z,14.62
2017-05-29T21:44:14.923Z,16.54
2017-05-29T21:46:42.309Z,15.16
2017-05-29T21:49:09.564Z,15.24
2017-05-29T21:51:36.822Z,13.88
2017-05-29T21:54:04.172Z,14.10
2017-05-29T21:56:31.409Z,16.48
2017-05-29T21:58:58.817Z,17.30
2017-05-29T22:01:26.148Z,16.70
2017-05-29T22:03:53.642Z,15.64
2017-05-29T22:06:21.106Z,16.86
2017-05-29T22:08:48.540Z,17.06
2017-05-29T22:11:15.889Z,19.10
2017-05-29T22:13:43.265Z,19.56
2017-05-29T22:16:10.540Z,20.14
2017-05-29T22:18:37.895Z,18.94
2017-05-29T22:21:05.144Z,21.32
2017-05-29T22:23:32.409Z,20.20
2017-05-29T22:25:59.655Z,20.06
2017-05-29T22:28:26.943Z,19.20
2017-05-29T22:30:54.203Z,19.32
2017-05-29T22:33:21.470Z,19.46
2017-05-29T22:35:48.691Z,18.54
2017-05-29T22:38:16.053Z,20.08
2017-05-29T22:40:43.358Z,18.84
2017-05-29T22:43:10.646Z,19.10
2017-05-29T22:45:37.975Z,19.54
2017-05-29T22:48:05.225Z,19.14
2017-05-29T22:50:32.739Z,18.82
2017-05-29T22:52:59.952Z,18.14
2017-05-29T22:55:27.224Z,19.44
2017-05-29T22:57:54.564Z,19.74
2017-05-29T23:00:22.737Z,19.74
2017-05-29T23:02:50.020Z,17.24
2017-05-29T23:05:17.221Z,16.58
2017-05-29T23:07:44.508Z,15.74
2017-05-29T23:10:11.832Z,14.38
2017-05-29T23:12:39.248Z,12.86
2017-05-29T23:15:06.623Z,12.24
2017-05-29T23:17:33.803Z,11.84
2017-05-29T23:20:01.012Z,12.32
2017-05-29T23:22:28.290Z,13.10
2017-05-29T23:24:55.480Z,13.60
2017-05-29T23:27:22.732Z,13.44
2017-05-29T23:29:49.960Z,13.44
2017-05-29T23:32:17.192Z,13.58
2017-05-29T23:34:44.397Z,13.48
2017-05-29T23:37:11.599Z,13.62
2017-05-29T23:39:38.784Z,14.46
2017-05-29T23:42:06.147Z,15.46
2017-05-29T23:44:33.367Z,13.66
2017-05-29T23:47:00.783Z,15.62
2017-05-29T23:49:28.012Z,14.86
2017-05-29T23:51:55.171Z,14.42
2017-05-29T23:54:22.367Z,14.64
2017-05-29T23:56:49.599Z,13.36
2017-05-29T23:59:16.812Z,14.20
